Date,TemperatureHighF,TemperatureAvgF,TemperatureLowF,DewpointHighF,DewpointAvgF,DewpointLowF,HumidityHigh,HumidityAvg,HumidityLow,PressureMaxIn,PressureMinIn,WindSpeedMaxMPH,WindSpeedAvgMPH,GustSpeedMaxMPH,PrecipitationSumIn
2013-4-1,80,64,49,58,53,48,96,70,39,30.05,29.91,0,0,0,0.01
2013-4-2,74,64,50,62,55,44,93,74,61,30.03,29.89,17,2,17,0.44
2013-4-3,53,49,44,47,44,41,93,83,72,30.13,29.95,15,3,15,0.12
2013-4-4,50,45,42,44,42,40,93,87,76,30.17,30.07,11,3,15,0.20
2013-4-5,70,54,40,52,45,39,95,75,44,30.22,30.03,7,0,9,0.00
2013-4-6,76,65,53,58,52,48,90,66,42,30.04,29.83,17,5,25,0.00
2013-4-7,73,67,60,61,59,56,90,76,65,29.92,29.75,16,7,18,0.00
2013-4-8,76,71,62,64,61,58,89,73,62,29.77,29.67,22,8,22,0.00
2013-4-9,84,75,68,68,64,61,84,69,49,29.72,29.62,22,9,23,0.00
2013-4-10,75,53,43,68,49,39,93,87,75,29.92,29.66,15,6,19,0.26
2013-4-11,44,41,39,39,36,34,85,82,79,29.95,29.89,13,6,16,0.00
2013-4-13,75,69,66,54,50,47,57,50,40,29.82,29.77,10,3,14,0.00
2013-4-14,81,69,53,64,58,49,92,68,51,29.76,29.54,14,4,19,0.00
2013-4-15,84,75,68,69,66,63,90,73,53,29.73,29.60,15,7,18,0.00
2013-4-16,87,78,71,70,67,65,83,71,48,29.88,29.73,15,3,16,0.00
2013-4-17,85,78,74,70,69,66,85,74,55,29.87,29.63,0,0,0,0.00
2013-4-18,76,58,47,69,51,35,92,78,62,30.11,29.56,0,0,0,1.08
2013-4-19,61,49,36,43,35,31,88,60,34,30.23,30.10,0,0,0,0.00
2013-4-20,70,58,43,47,40,36,79,54,30,30.20,30.02,0,0,0,0.00
2013-4-21,71,60,46,52,46,41,89,64,40,30.21,30.05,0,0,0,0.00
2013-4-22,77,65,52,59,52,45,86,65,46,30.11,29.85,0,0,0,0.00
2013-4-23,74,60,46,65,54,41,91,81,68,30.09,29.80,0,0,0,0.00
2013-4-24,62,51,41,48,42,37,90,71,48,30.28,30.11,0,0,0,0.26
2013-4-25,72,61,50,51,45,40,79,58,33,30.32,30.16,0,0,0,0.00
2013-4-26,75,66,58,66,57,45,86,73,56,30.18,29.97,0,0,0,0.00
2013-4-27,76,69,60,67,63,55,89,80,66,30.03,29.95,0,0,1,0.00
2013-4-28,79,65,52,67,59,51,96,84,63,30.04,29.84,2,0,4,0.00
2013-4-29,82,72,59,68,61,56,96,72,41,29.89,29.77,0,0,0,0.00
2013-4-30,83,71,57,67,62,56,95,74,49,29.81,29.72,0,0,0,0.00